Time;durP1;ratioP1;P1;durP2;ratioP2;P2;SDS_P1;SDS_P2;PMS_P1;PMS_P2;Temp;Humidity;BMP_temperature;BMP_pressure;BME280_temperature;BME280_humidity;BME280_pressure;Samples;Min_cycle;Max_cycle;Signal;HPM_P1;HPM_P2
2023/08/29 00:00:05;;;;;;;6.53;5.90;;;;;;;15.03;84.59;100859.19;5033838;28;20215;-71
2023/08/29 00:02:41;;;;;;;6.13;5.73;;;;;;;15.02;84.70;100862.91;5033966;28;20180;-71
2023/08/29 00:05:09;;;;;;;7.50;7.37;;;;;;;14.94;84.42;100863.78;5033874;28;20195;-71
2023/08/29 00:07:36;;;;;;;6.90;6.47;;;;;;;14.88;84.39;100853.72;5033782;28;20238;-70
2023/08/29 00:10:03;;;;;;;6.43;6.30;;;;;;;14.85;84.31;100850.56;5034000;28;20180;-70
2023/08/29 00:12:31;;;;;;;8.80;8.27;;;;;;;14.81;84.41;100841.16;5033738;28;20207;-70
2023/08/29 00:14:59;;;;;;;8.23;8.00;;;;;;;14.74;84.36;100840.16;5033720;28;20192;-70
2023/08/29 00:17:26;;;;;;;7.30;6.97;;;;;;;14.67;84.58;100836.50;5033689;28;20195;-70
2023/08/29 00:19:53;;;;;;;7.07;6.97;;;;;;;14.61;84.79;100836.19;5033808;28;20196;-71
2023/08/29 00:22:20;;;;;;;7.00;6.80;;;;;;;14.56;84.98;100838.56;5033897;28;20555;-71
2023/08/29 00:24:52;;;;;;;7.23;6.87;;;;;;;14.54;85.25;100842.44;5033629;28;20234;-71
2023/08/29 00:27:19;;;;;;;4.83;4.73;;;;;;;14.52;85.18;100831.00;5033563;28;20188;-71
2023/08/29 00:29:46;;;;;;;5.43;5.43;;;;;;;14.53;85.53;100830.84;5033686;28;20555;-71
2023/08/29 00:32:12;;;;;;;6.50;6.40;;;;;;;14.49;85.23;100829.53;5033476;28;20176;-71
2023/08/29 00:34:41;;;;;;;7.00;6.80;;;;;;;14.45;85.21;100838.94;5032150;28;20211;-71
2023/08/29 00:37:07;;;;;;;6.40;6.10;;;;;;;14.41;85.43;100842.16;5032106;28;20695;-71
2023/08/29 00:39:34;;;;;;;4.97;4.87;;;;;;;14.36;85.42;100841.84;5033608;28;20265;-71
2023/08/29 00:42:00;;;;;;;6.97;6.67;;;;;;;14.35;85.77;100840.13;5033299;28;20266;-71
2023/08/29 00:44:27;;;;;;;7.30;6.90;;;;;;;14.32;85.57;100845.84;5032066;28;20188;-71
2023/08/29 00:46:54;;;;;;;5.57;5.47;;;;;;;14.27;85.53;100846.38;5032054;28;20215;-71
2023/08/29 00:49:26;;;;;;;4.93;4.83;;;;;;;14.23;85.73;100852.25;5031913;28;20215;-71
2023/08/29 00:51:53;;;;;;;5.53;5.47;;;;;;;14.19;85.85;100858.00;5033197;28;20242;-71
2023/08/29 00:54:20;;;;;;;5.67;5.37;;;;;;;14.17;85.78;100859.19;5033204;28;20227;-72
2023/08/29 00:56:48;;;;;;;5.33;5.20;;;;;;;14.17;85.89;100853.81;5032008;28;20199;-71
2023/08/29 00:59:14;;;;;;;6.87;6.77;;;;;;;14.17;85.97;100864.56;5033379;28;20691;-72
2023/08/29 01:01:43;;;;;;;7.03;6.80;;;;;;;14.17;85.71;100853.81;5033627;28;20200;-72
2023/08/29 01:04:13;;;;;;;6.10;6.00;;;;;;;14.10;85.07;100866.25;5033671;28;20172;-72
2023/08/29 01:06:39;;;;;;;5.83;5.73;;;;;;;13.98;85.46;100864.91;5033148;28;20172;-71
2023/08/29 01:09:06;;;;;;;4.77;4.77;;;;;;;13.91;85.45;100859.41;5033192;28;20239;-71
2023/08/29 01:11:54;;;;;;;4.87;4.77;;;;;;;13.88;85.72;100867.78;5033051;28;20180;-71
2023/08/29 01:14:37;;;;;;;7.00;6.73;;;;;;;13.87;86.04;100855.38;5037170;28;20198;-71
2023/08/29 01:17:24;;;;;;;8.13;7.87;;;;;;;13.92;85.98;100849.50;5035833;28;20196;-72
2023/08/29 01:19:52;;;;;;;8.47;7.97;;;;;;;13.84;86.22;100846.78;5036957;28;20242;-71
2023/08/29 01:22:40;;;;;;;7.87;7.67;;;;;;;13.84;86.09;100847.63;5035641;28;20252;-71
2023/08/29 01:25:30;;;;;;;8.37;8.07;;;;;;;13.81;86.19;100845.28;5037218;28;20624;-71
2023/08/29 01:27:57;;;;;;;7.73;7.53;;;;;;;13.76;86.43;100841.41;5037117;28;20261;-70
2023/08/29 01:30:24;;;;;;;9.37;8.90;;;;;;;13.78;86.74;100847.47;5036741;28;20188;-70
2023/08/29 01:32:54;;;;;;;8.93;8.50;;;;;;;13.77;86.08;100849.31;5035788;28;20187;-70
2023/08/29 01:35:21;;;;;;;7.97;7.40;;;;;;;13.63;86.03;100863.44;5037242;28;20644;-70
2023/08/29 01:37:48;;;;;;;6.27;6.17;;;;;;;13.50;86.16;100861.25;5036600;28;20212;-70
2023/08/29 01:40:14;;;;;;;6.20;6.00;;;;;;;13.44;86.60;100866.47;5036808;28;20238;-70
2023/08/29 01:42:41;;;;;;;5.50;5.40;;;;;;;13.42;87.10;100869.28;5036807;28;20196;-70
2023/08/29 01:45:08;;;;;;;6.00;5.90;;;;;;;13.43;87.06;100883.56;5036545;28;20679;-70
2023/08/29 01:47:34;;;;;;;7.93;7.43;;;;;;;13.43;87.14;100886.25;5035988;28;20238;-70
2023/08/29 01:50:03;;;;;;;6.87;6.77;;;;;;;13.42;87.20;100896.16;5037543;28;20572;-70
2023/08/29 01:52:31;;;;;;;5.40;5.40;;;;;;;13.40;87.12;100887.44;5036670;28;20187;-70
2023/08/29 01:54:57;;;;;;;6.67;6.47;;;;;;;13.39;87.34;100899.19;5036403;28;20188;-70
2023/08/29 01:57:27;;;;;;;9.40;8.67;;;;;;;13.35;87.21;100897.00;5035018;28;20200;-70
2023/08/29 01:59:54;;;;;;;7.00;6.47;;;;;;;13.33;87.24;100896.28;5035209;28;20199;-70
2023/08/29 02:02:20;;;;;;;7.00;6.80;;;;;;;13.34;87.23;100901.50;5035140;28;20619;-70
2023/08/29 02:04:47;;;;;;;7.20;6.90;;;;;;;13.35;87.78;100911.25;5036716;28;20197;-70
2023/08/29 02:07:13;;;;;;;6.67;6.47;;;;;;;13.35;87.26;100916.63;5034878;28;20660;-70
2023/08/29 02:09:39;;;;;;;7.83;7.63;;;;;;;13.33;87.69;100921.31;5034772;28;20223;-70
2023/08/29 02:12:06;;;;;;;7.13;7.03;;;;;;;13.34;87.39;100920.31;5036243;28;20190;-70
2023/08/29 02:14:32;;;;;;;6.80;6.53;;;;;;;13.34;87.61;100914.09;5036571;28;20188;-70
2023/08/29 02:16:59;;;;;;;6.87;6.77;;;;;;;13.32;87.44;100916.97;5034746;28;20250;-70
2023/08/29 02:19:26;;;;;;;7.13;6.90;;;;;;;13.35;87.33;100926.53;5034807;28;20266;-70
2023/08/29 02:21:52;;;;;;;10.10;9.63;;;;;;;13.33;87.95;100923.16;5035838;28;20208;-71
2023/08/29 02:24:19;;;;;;;10.53;9.77;;;;;;;13.28;87.80;100919.13;5035689;28;20196;-71
2023/08/29 02:26:45;;;;;;;7.73;7.27;;;;;;;13.27;87.73;100913.94;5035800;28;20188;-72
2023/08/29 02:29:11;;;;;;;8.50;7.67;;;;;;;13.30;87.78;100915.44;5035936;28;20216;-72
2023/08/29 02:31:38;;;;;;;6.87;6.67;;;;;;;13.30;87.88;100921.66;5035951;28;20184;-72
2023/08/29 02:34:04;;;;;;;6.73;6.53;;;;;;;13.31;87.57;100914.44;5035664;28;20254;-72
2023/08/29 02:36:31;;;;;;;6.97;6.87;;;;;;;13.31;88.14;100922.50;5034369;28;20537;-72
2023/08/29 02:38:57;;;;;;;6.87;6.70;;;;;;;13.30;88.07;100921.66;5035484;28;20757;-70
2023/08/29 02:41:23;;;;;;;8.87;8.33;;;;;;;13.26;87.33;100917.59;5035437;28;20208;-70
2023/08/29 02:43:50;;;;;;;8.03;7.80;;;;;;;13.20;87.29;100919.09;5034194;28;20263;-71
2023/08/29 02:46:16;;;;;;;9.43;8.80;;;;;;;13.16;87.14;100911.53;5035440;28;20664;-71
2023/08/29 02:48:43;;;;;;;8.80;8.53;;;;;;;13.14;86.71;100911.72;5035406;28;20212;-71
2023/08/29 02:51:10;;;;;;;10.13;9.67;;;;;;;13.04;86.97;100912.81;5034063;28;20192;-72
2023/08/29 02:53:37;;;;;;;11.90;10.97;;;;;;;12.96;87.56;100912.78;5034042;28;20219;-72
2023/08/29 02:56:03;;;;;;;8.63;8.43;;;;;;;12.97;87.79;100903.75;5033992;28;20192;-72
2023/08/29 02:58:30;;;;;;;10.37;9.63;;;;;;;13.02;87.78;100912.16;5035387;28;20212;-72
2023/08/29 03:00:57;;;;;;;10.17;9.37;;;;;;;13.03;87.71;100898.53;5033874;28;20628;-72
2023/08/29 03:03:24;;;;;;;9.97;9.47;;;;;;;12.98;88.52;100898.22;5035079;28;20698;-72
2023/08/29 03:05:57;;;;;;;9.63;9.23;;;;;;;12.98;88.46;100892.00;5035021;28;20218;-72
2023/08/29 03:08:25;;;;;;;8.23;7.77;;;;;;;12.94;88.62;100893.34;5033934;28;20212;-71
2023/08/29 03:10:53;;;;;;;8.53;8.23;;;;;;;12.92;88.92;100889.97;5034277;28;20192;-71
2023/08/29 03:13:20;;;;;;;7.93;7.80;;;;;;;12.93;89.06;100887.13;5033665;28;20234;-71
2023/08/29 03:15:47;;;;;;;8.53;8.23;;;;;;;12.95;89.08;100878.91;5033568;28;20195;-71
2023/08/29 03:18:14;;;;;;;8.10;7.90;;;;;;;12.96;89.05;100872.53;5033426;28;20216;-71
2023/08/29 03:20:41;;;;;;;11.43;10.80;;;;;;;12.99;89.26;100872.19;5033408;28;20192;-71
2023/08/29 03:23:09;;;;;;;10.00;9.47;;;;;;;13.05;89.26;100863.50;5033468;28;20346;-71
2023/08/29 03:25:36;;;;;;;8.63;8.30;;;;;;;13.00;89.35;100871.19;5034952;28;20647;-71
2023/08/29 03:28:03;;;;;;;9.37;9.00;;;;;;;12.95;89.05;100876.22;5034774;28;20210;-71
2023/08/29 03:30:30;;;;;;;8.80;8.50;;;;;;;12.91;89.50;100875.69;5033237;28;20203;-71
2023/08/29 03:32:56;;;;;;;10.90;9.10;;;;;;;12.91;89.19;100864.13;5034531;28;20192;-71
2023/08/29 03:35:23;;;;;;;10.37;9.73;;;;;;;12.98;89.55;100851.75;5034174;28;20642;-71
2023/08/29 03:37:49;;;;;;;10.47;9.73;;;;;;;12.98;89.30;100849.06;5033081;28;20258;-71
2023/08/29 03:40:17;;;;;;;10.00;9.37;;;;;;;12.94;88.88;100845.03;5033129;28;20207;-71
2023/08/29 03:42:44;;;;;;;10.13;9.70;;;;;;;12.96;88.64;100833.13;5034265;28;20683;-71
2023/08/29 03:45:14;;;;;;;10.10;9.50;;;;;;;12.88;88.72;100835.78;5034587;28;20172;-71
2023/08/29 03:47:41;;;;;;;8.80;8.60;;;;;;;12.87;88.73;100822.53;5034448;28;20625;-71
2023/08/29 03:50:07;;;;;;;9.97;9.57;;;;;;;12.76;89.03;100824.53;5034179;28;20266;-71
2023/08/29 03:52:34;;;;;;;10.07;9.50;;;;;;;12.79;89.36;100832.25;5032892;28;20187;-71
2023/08/29 03:55:01;;;;;;;10.53;9.77;;;;;;;12.80;89.10;100822.34;5032823;28;20187;-71
2023/08/29 03:57:27;;;;;;;8.83;8.43;;;;;;;12.79;89.56;100816.16;5032820;28;20195;-71
2023/08/29 03:59:54;;;;;;;10.97;10.37;;;;;;;12.83;89.54;100816.66;5032938;28;20195;-72
2023/08/29 04:02:21;;;;;;;10.47;9.97;;;;;;;12.83;89.58;100817.50;5033881;28;20621;-72
2023/08/29 04:04:51;;;;;;;8.60;8.30;;;;;;;12.86;89.88;100821.69;5032908;28;20207;-72
2023/08/29 04:07:18;;;;;;;9.23;8.73;;;;;;;12.86;89.86;100820.88;5032969;28;20692;-72
2023/08/29 04:09:45;;;;;;;9.67;8.83;;;;;;;12.86;89.93;100815.50;5032448;28;20223;-71
2023/08/29 04:12:12;;;;;;;8.60;8.00;;;;;;;12.86;89.96;100824.38;5032416;28;20210;-71
2023/08/29 04:14:38;;;;;;;8.53;8.13;;;;;;;12.86;90.03;100824.38;5034343;28;20172;-71
2023/08/29 04:17:04;;;;;;;7.77;7.40;;;;;;;12.83;89.88;100830.91;5032499;28;20706;-72
2023/08/29 04:19:31;;;;;;;7.67;7.40;;;;;;;12.85;90.00;100836.13;5033621;28;20211;-71
2023/08/29 04:21:57;;;;;;;9.83;9.10;;;;;;;12.90;90.04;100839.13;5033912;28;20196;-71
2023/08/29 04:24:23;;;;;;;10.03;9.53;;;;;;;12.87;89.96;100836.78;5034160;28;20238;-71
2023/08/29 04:26:50;;;;;;;9.40;8.80;;;;;;;12.85;89.98;100837.97;5034389;28;20196;-71
2023/08/29 04:29:16;;;;;;;10.50;9.90;;;;;;;12.85;89.94;100840.66;5033605;28;20216;-71
2023/08/29 04:31:43;;;;;;;11.17;10.37;;;;;;;12.85;90.11;100835.28;5034060;28;20594;-71
2023/08/29 04:34:10;;;;;;;8.73;8.33;;;;;;;12.87;90.05;100835.94;5032200;28;20211;-72
2023/08/29 04:36:37;;;;;;;8.13;7.67;;;;;;;12.87;89.97;100839.47;5032174;28;20188;-71
2023/08/29 04:39:03;;;;;;;10.10;9.27;;;;;;;12.86;89.89;100845.81;5033523;28;20214;-71
2023/08/29 04:41:30;;;;;;;10.10;9.43;;;;;;;12.82;89.96;100845.31;5033579;28;20196;-72
2023/08/29 04:43:56;;;;;;;8.17;7.87;;;;;;;12.83;89.87;100836.28;5033586;28;20220;-72
2023/08/29 04:46:23;;;;;;;9.23;8.83;;;;;;;12.86;89.90;100839.66;5031876;28;20211;-72
2023/08/29 04:48:49;;;;;;;12.93;11.77;;;;;;;12.84;89.91;100842.50;5031347;28;20306;-71
2023/08/29 04:51:17;;;;;;;9.13;8.83;;;;;;;12.83;90.12;100840.78;5031958;28;20245;-71
2023/08/29 04:53:46;;;;;;;10.60;9.73;;;;;;;12.86;89.74;100843.16;5031957;28;20191;-71
2023/08/29 04:56:13;;;;;;;10.80;9.93;;;;;;;12.87;89.58;100838.63;5031835;28;20196;-71
2023/08/29 04:58:39;;;;;;;10.50;9.97;;;;;;;12.79;89.88;100842.97;5033085;28;20258;-71
2023/08/29 05:01:07;;;;;;;10.27;9.67;;;;;;;12.77;89.77;100844.16;5033582;28;20183;-71
2023/08/29 05:03:33;;;;;;;7.37;7.27;;;;;;;12.77;89.88;100842.28;5032072;28;20606;-71
2023/08/29 05:06:00;;;;;;;8.53;8.27;;;;;;;12.79;90.34;100847.50;5031778;28;20195;-71
2023/08/29 05:08:26;;;;;;;10.67;8.97;;;;;;;12.81;90.31;100835.59;5032852;28;20208;-71
2023/08/29 05:10:53;;;;;;;10.30;9.90;;;;;;;12.82;90.10;100831.91;5033544;28;20648;-71
2023/08/29 05:13:19;;;;;;;8.50;8.20;;;;;;;12.83;90.27;100844.31;5031889;28;20216;-71
2023/08/29 05:15:45;;;;;;;8.63;8.33;;;;;;;12.87;90.39;100831.41;5031725;28;20587;-71
2023/08/29 05:18:12;;;;;;;12.70;11.70;;;;;;;12.92;90.56;100834.47;5033354;28;20283;-71
2023/08/29 05:20:38;;;;;;;11.27;10.60;;;;;;;12.97;90.41;100836.66;5032793;28;20191;-71
2023/08/29 05:23:05;;;;;;;11.93;10.60;;;;;;;13.01;90.57;100838.00;5032995;28;20203;-71
2023/08/29 05:25:31;;;;;;;10.23;9.73;;;;;;;13.05;90.85;100836.66;5032897;28;20195;-71
2023/08/29 05:27:58;;;;;;;10.63;9.87;;;;;;;13.10;90.66;100831.66;5032768;28;20617;-71
2023/08/29 05:30:24;;;;;;;9.57;9.23;;;;;;;13.15;90.57;100834.72;5033367;28;20230;-71
2023/08/29 05:32:54;;;;;;;14.60;10.83;;;;;;;13.24;90.45;100833.69;5032810;28;20184;-71
2023/08/29 05:35:20;;;;;;;10.60;10.10;;;;;;;13.31;90.46;100831.19;5032725;28;20184;-71
2023/08/29 05:37:47;;;;;;;11.73;10.80;;;;;;;13.38;90.26;100830.34;5032693;28;20216;-71
2023/08/29 05:40:13;;;;;;;10.90;10.20;;;;;;;13.50;90.27;100837.06;5032786;28;20246;-73
2023/08/29 05:42:40;;;;;;;11.93;10.80;;;;;;;13.56;90.06;100835.56;5031909;28;20215;-72
2023/08/29 05:45:07;;;;;;;12.97;11.07;;;;;;;13.48;90.00;100836.41;5033047;28;20184;-72
2023/08/29 05:47:33;;;;;;;12.07;11.37;;;;;;;13.45;90.02;100831.34;5033002;28;20575;-71
2023/08/29 05:49:59;;;;;;;12.50;11.33;;;;;;;13.51;90.34;100838.75;5032885;28;20581;-71
2023/08/29 05:52:26;;;;;;;11.90;11.17;;;;;;;13.54;90.58;100843.78;5033181;28;20180;-71
2023/08/29 05:54:52;;;;;;;12.57;11.60;;;;;;;13.58;90.76;100839.75;5032893;28;20188;-71
2023/08/29 05:57:20;;;;;;;12.13;11.30;;;;;;;13.58;90.67;100833.53;5033171;28;20196;-71
2023/08/29 05:59:46;;;;;;;11.43;10.23;;;;;;;13.59;90.84;100825.31;5035317;28;20203;-71
2023/08/29 06:02:12;;;;;;;13.13;12.17;;;;;;;13.67;90.94;100827.16;5036728;28;20333;-71
2023/08/29 06:04:39;;;;;;;12.90;11.97;;;;;;;13.66;90.72;100826.31;5036529;28;20230;-71
2023/08/29 06:07:06;;;;;;;12.33;11.03;;;;;;;13.64;91.07;100832.88;5036687;28;20184;-71
2023/08/29 06:09:35;;;;;;;11.00;10.23;;;;;;;13.65;91.08;100830.03;5036379;28;20734;-71
2023/08/29 06:12:02;;;;;;;9.87;9.43;;;;;;;13.67;91.24;100828.00;5036040;28;20199;-71
2023/08/29 06:14:29;;;;;;;11.60;10.63;;;;;;;13.72;91.42;100833.72;5035929;28;20283;-71
2023/08/29 06:16:55;;;;;;;12.77;11.73;;;;;;;13.80;91.33;100832.00;5036231;28;20184;-71
2023/08/29 06:19:22;;;;;;;12.73;11.67;;;;;;;13.79;91.27;100833.03;5036432;28;20235;-71
2023/08/29 06:21:48;;;;;;;9.00;8.50;;;;;;;13.80;91.26;100837.38;5035802;28;20208;-71
2023/08/29 06:24:15;;;;;;;11.00;10.20;;;;;;;13.82;91.44;100833.53;5035864;28;20192;-71
2023/08/29 06:26:42;;;;;;;10.83;9.83;;;;;;;13.86;91.33;100834.88;5035757;28;20187;-71
2023/08/29 06:29:08;;;;;;;9.53;8.93;;;;;;;13.89;91.00;100831.00;5035691;28;20242;-71
2023/08/29 06:31:34;;;;;;;10.93;10.27;;;;;;;13.93;91.35;100837.72;5036208;28;20593;-72
2023/08/29 06:34:01;;;;;;;11.50;10.80;;;;;;;13.98;91.60;100840.72;5035649;28;20245;-72
2023/08/29 06:36:27;;;;;;;13.07;12.00;;;;;;;14.04;91.35;100837.38;5035648;28;20535;-72
2023/08/29 06:38:54;;;;;;;12.57;11.47;;;;;;;14.14;90.79;100838.84;5035699;28;20212;-72
2023/08/29 06:41:20;;;;;;;16.17;13.13;;;;;;;14.23;90.43;100850.41;5035522;28;20246;-72
2023/08/29 06:43:46;;;;;;;12.73;11.47;;;;;;;14.29;90.33;100852.44;5035417;28;20200;-71
2023/08/29 06:46:13;;;;;;;11.73;10.63;;;;;;;14.30;90.10;100843.31;5035708;28;20183;-71
2023/08/29 06:48:43;;;;;;;14.43;12.90;;;;;;;14.34;90.13;100846.53;5035518;28;20208;-71
2023/08/29 06:51:10;;;;;;;13.23;12.00;;;;;;;14.35;90.09;100842.81;5035318;28;20255;-71
2023/08/29 06:53:36;;;;;;;13.87;12.37;;;;;;;14.35;90.22;100841.00;5035265;28;20656;-71
2023/08/29 06:56:04;;;;;;;12.67;11.77;;;;;;;14.36;90.11;100847.22;5035299;28;20238;-72
2023/08/29 06:58:30;;;;;;;12.87;11.87;;;;;;;14.38;90.16;100843.38;5035453;28;20217;-70
2023/08/29 07:00:56;;;;;;;13.83;11.83;;;;;;;14.37;90.56;100841.69;5035191;28;20210;-71
2023/08/29 07:03:23;;;;;;;13.53;12.30;;;;;;;14.45;90.34;100848.88;5035358;28;20210;-71
2023/08/29 07:05:49;;;;;;;13.73;12.37;;;;;;;14.46;90.45;100845.19;5035388;28;20306;-71
2023/08/29 07:08:16;;;;;;;14.63;13.17;;;;;;;14.48;90.08;100849.34;5035015;28;20559;-71
2023/08/29 07:10:43;;;;;;;12.37;11.37;;;;;;;14.52;89.66;100849.84;5033919;28;20242;-71
2023/08/29 07:13:09;;;;;;;13.07;11.90;;;;;;;14.57;90.09;100853.69;5034934;28;20195;-72
2023/08/29 07:15:35;;;;;;;14.37;12.90;;;;;;;14.64;88.81;100846.59;5034930;28;20239;-72
2023/08/29 07:18:05;;;;;;;12.90;12.00;;;;;;;14.75;88.80;100849.94;5034757;28;20266;-71
2023/08/29 07:20:32;;;;;;;13.33;12.07;;;;;;;14.70;89.11;100841.53;5035344;28;20207;-71
2023/08/29 07:22:59;;;;;;;12.03;11.10;;;;;;;14.70;89.21;100842.38;5034989;28;20601;-71
2023/08/29 07:25:43;;;;;;;13.70;12.30;;;;;;;14.76;89.13;100841.69;5035253;28;20648;-71
2023/08/29 07:28:13;;;;;;;13.57;12.20;;;;;;;14.87;88.55;100846.66;5034640;28;20210;-71
2023/08/29 07:30:45;;;;;;;17.80;12.70;;;;;;;14.95;87.66;100840.38;5034821;28;20196;-71
2023/08/29 07:33:13;;;;;;;15.47;13.07;;;;;;;14.91;87.72;100842.59;5036388;28;20545;-71
2023/08/29 07:35:41;;;;;;;12.20;11.37;;;;;;;14.95;88.05;100843.94;5034508;28;20195;-71
2023/08/29 07:38:07;;;;;;;16.20;12.27;;;;;;;15.02;87.48;100842.19;5034326;28;20262;-71
2023/08/29 07:40:34;;;;;;;13.53;12.13;;;;;;;14.99;87.27;100849.78;5034913;28;20208;-72
2023/08/29 07:43:03;;;;;;;13.77;12.50;;;;;;;14.92;87.89;100852.38;5034110;28;20200;-72
2023/08/29 07:45:30;;;;;;;14.57;13.27;;;;;;;14.92;88.04;100856.91;5034268;28;20188;-72
2023/08/29 07:47:57;;;;;;;14.10;12.70;;;;;;;14.97;88.08;100851.84;5034187;28;20298;-71
2023/08/29 07:50:23;;;;;;;13.87;12.67;;;;;;;15.04;87.81;100856.34;5034159;28;20697;-71
2023/08/29 07:52:50;;;;;;;14.27;13.17;;;;;;;15.10;87.30;100865.56;5034459;28;20184;-71
2023/08/29 07:55:16;;;;;;;13.63;12.27;;;;;;;15.09;87.40;100856.63;5034365;28;20609;-71
2023/08/29 07:57:43;;;;;;;13.97;12.30;;;;;;;15.19;86.95;100866.34;5034042;28;20184;-71
2023/08/29 08:00:11;;;;;;;13.47;12.43;;;;;;;15.29;86.73;100851.63;5034603;28;20192;-71
2023/08/29 08:02:38;;;;;;;14.77;13.67;;;;;;;15.24;86.69;100854.00;5033951;28;20203;-71
2023/08/29 08:05:14;;;;;;;14.60;13.17;;;;;;;15.28;86.71;100857.16;5034204;28;20199;-71
2023/08/29 08:07:43;;;;;;;19.93;15.07;;;;;;;15.21;87.03;100851.69;5034092;28;20559;-71
2023/08/29 08:10:11;;;;;;;22.67;16.23;;;;;;;15.27;86.93;100850.13;5034097;28;20562;-71
2023/08/29 08:12:40;;;;;;;17.83;15.90;;;;;;;15.25;87.01;100853.00;5034144;28;20261;-71
2023/08/29 08:15:08;;;;;;;16.73;14.83;;;;;;;15.24;87.01;100862.09;5034361;28;20230;-68
2023/08/29 08:17:35;;;;;;;16.33;14.93;;;;;;;15.26;87.31;100856.53;5032745;28;20187;-69
2023/08/29 08:20:07;;;;;;;18.73;15.53;;;;;;;15.39;86.92;100867.56;5033665;28;20184;-68
2023/08/29 08:22:37;;;;;;;16.63;14.13;;;;;;;15.40;86.43;100863.84;5033938;28;20227;-68
2023/08/29 08:25:04;;;;;;;16.13;14.63;;;;;;;15.41;86.75;100869.03;5033652;28;20589;-68
2023/08/29 08:27:30;;;;;;;17.03;15.23;;;;;;;15.43;86.73;100868.88;5033677;28;20668;-69
2023/08/29 08:29:57;;;;;;;20.93;15.57;;;;;;;15.56;86.20;100874.53;5033537;28;20215;-68
2023/08/29 08:32:24;;;;;;;15.57;14.27;;;;;;;15.66;85.36;100875.09;5033480;28;20192;-68
2023/08/29 08:34:50;;;;;;;15.03;13.73;;;;;;;15.67;85.27;100875.94;5033965;28;20258;-68
2023/08/29 08:37:17;;;;;;;14.23;12.97;;;;;;;15.58;85.42;100868.94;5033644;28;20188;-68
2023/08/29 08:39:43;;;;;;;25.00;14.57;;;;;;;15.56;85.43;100865.59;5033340;28;20208;-68
2023/08/29 08:42:11;;;;;;;12.97;12.07;;;;;;;15.67;85.37;100873.25;5032629;28;20188;-68
2023/08/29 08:44:38;;;;;;;12.10;11.40;;;;;;;15.67;85.37;100871.41;5033897;28;20652;-68
2023/08/29 08:47:06;;;;;;;13.50;12.40;;;;;;;15.70;85.40;100875.59;5033299;28;20176;-68
2023/08/29 08:49:32;;;;;;;12.07;11.27;;;;;;;15.70;85.49;100873.72;5033174;28;20269;-68
2023/08/29 08:51:59;;;;;;;10.40;9.77;;;;;;;15.76;85.63;100875.72;5033222;28;20726;-68
2023/08/29 08:54:26;;;;;;;15.93;13.90;;;;;;;15.87;85.19;100871.75;5033100;28;20180;-68
2023/08/29 08:56:57;;;;;;;14.23;12.90;;;;;;;15.85;84.61;100863.84;5033204;28;20242;-68
2023/08/29 08:59:26;;;;;;;14.27;12.73;;;;;;;15.87;84.38;100871.75;5033567;28;20200;-68
2023/08/29 09:01:56;;;;;;;14.40;13.23;;;;;;;16.00;83.47;100866.53;5033094;28;20249;-68
2023/08/29 09:04:24;;;;;;;16.00;12.97;;;;;;;16.02;83.39;100877.16;5033331;28;20200;-68
2023/08/29 09:06:50;;;;;;;12.67;11.60;;;;;;;15.99;83.73;100870.28;5033380;28;20194;-68
2023/08/29 09:09:19;;;;;;;20.97;12.50;;;;;;;16.03;83.54;100871.59;5033251;28;20215;-68
2023/08/29 09:11:54;;;;;;;12.50;11.20;;;;;;;16.05;83.46;100874.09;5033365;28;20686;-68
2023/08/29 09:14:22;;;;;;;14.20;12.70;;;;;;;16.13;83.53;100879.41;5033880;28;20197;-68
2023/08/29 09:16:56;;;;;;;30.40;17.67;;;;;;;16.18;83.63;100879.69;5032954;28;20663;-68
2023/08/29 09:19:23;;;;;;;14.07;12.50;;;;;;;16.21;83.89;100877.47;5034009;28;20220;-68
2023/08/29 09:21:50;;;;;;;12.60;11.73;;;;;;;16.28;83.36;100881.13;5033538;28;20173;-68
2023/08/29 09:24:33;;;;;;;9.57;9.17;;;;;;;16.32;83.36;100884.28;5032783;28;20550;-68
2023/08/29 09:27:04;;;;;;;9.53;8.80;;;;;;;16.36;83.36;100877.50;5032912;28;20208;-68
2023/08/29 09:29:30;;;;;;;11.57;10.97;;;;;;;16.39;83.47;100877.94;5033426;28;20239;-68
2023/08/29 09:32:11;;;;;;;9.53;8.83;;;;;;;16.50;83.28;100881.22;5033423;28;20585;-68
2023/08/29 09:34:37;;;;;;;13.77;11.70;;;;;;;16.56;83.21;100880.47;5036048;28;20172;-68
2023/08/29 09:37:05;;;;;;;9.17;8.43;;;;;;;16.63;81.52;100884.97;5036929;28;20188;-68
2023/08/29 09:39:32;;;;;;;6.90;6.63;;;;;;;16.77;78.38;100878.72;5036576;28;20270;-68
2023/08/29 09:42:00;;;;;;;5.30;5.20;;;;;;;16.77;77.83;100875.16;5036667;28;20235;-68
2023/08/29 09:44:27;;;;;;;7.10;6.23;;;;;;;16.77;78.51;100877.88;5037041;28;20254;-68
2023/08/29 09:46:53;;;;;;;7.17;6.93;;;;;;;16.86;78.78;100874.03;5036558;28;20311;-68
2023/08/29 09:49:20;;;;;;;7.90;7.37;;;;;;;16.99;76.66;100876.91;5036377;28;20266;-68
2023/08/29 09:51:47;;;;;;;8.77;8.17;;;;;;;16.94;78.08;100873.09;5036686;28;20234;-68
2023/08/29 09:54:19;;;;;;;8.10;7.50;;;;;;;17.03;78.53;100872.81;5036370;28;20184;-68
2023/08/29 09:56:45;;;;;;;9.20;8.90;;;;;;;17.06;77.57;100872.41;5035779;28;20211;-68
2023/08/29 09:59:16;;;;;;;8.63;8.17;;;;;;;17.06;77.39;100872.41;5036378;28;20273;-68
2023/08/29 10:01:44;;;;;;;6.47;6.23;;;;;;;17.02;78.29;100870.28;5037071;28;20573;-68
2023/08/29 10:04:19;;;;;;;7.07;6.57;;;;;;;17.05;78.42;100864.50;5036406;28;20249;-68
2023/08/29 10:06:51;;;;;;;7.47;7.17;;;;;;;17.09;77.69;100861.25;5036226;28;20235;-68
2023/08/29 10:09:19;;;;;;;9.27;8.53;;;;;;;17.10;77.20;100859.38;5036118;28;20208;-68
2023/08/29 10:11:46;;;;;;;9.00;8.70;;;;;;;17.05;76.62;100857.25;5036035;28;20191;-68
2023/08/29 10:14:22;;;;;;;8.97;8.30;;;;;;;17.42;74.65;100850.78;5036219;28;20855;-68
2023/08/29 10:16:49;;;;;;;8.33;7.90;;;;;;;17.25;74.92;100846.66;5035998;28;20271;-68
2023/08/29 10:19:17;;;;;;;7.07;6.73;;;;;;;17.17;75.56;100850.31;5036130;28;20212;-69
2023/08/29 10:21:44;;;;;;;6.73;6.13;;;;;;;17.19;76.00;100858.22;5036335;28;20593;-68
2023/08/29 10:24:12;;;;;;;5.00;4.97;;;;;;;17.17;76.12;100854.88;5035738;28;20247;-68
2023/08/29 10:26:38;;;;;;;7.17;6.83;;;;;;;17.28;74.78;100859.78;5036083;28;20188;-68
2023/08/29 10:29:05;;;;;;;5.93;5.67;;;;;;;17.31;73.66;100856.72;5035869;28;20575;-68
2023/08/29 10:31:34;;;;;;;5.80;5.60;;;;;;;17.47;73.91;100861.00;5035991;28;20192;-68
2023/08/29 10:34:03;;;;;;;9.20;6.67;;;;;;;17.44;74.44;100856.00;5035677;28;20242;-68
2023/08/29 10:36:30;;;;;;;5.90;5.70;;;;;;;17.41;75.14;100853.66;5035949;28;20636;-68
2023/08/29 10:38:58;;;;;;;6.03;5.80;;;;;;;17.36;75.41;100854.25;5035807;28;20691;-68
2023/08/29 10:41:24;;;;;;;6.90;6.70;;;;;;;17.35;74.78;100848.00;5035434;28;20192;-68
2023/08/29 10:44:22;;;;;;;7.27;6.73;;;;;;;17.57;74.42;100850.69;5035868;28;20195;-68
2023/08/29 10:46:52;;;;;;;4.10;4.00;;;;;;;17.63;73.23;100850.81;5035836;28;20246;-68
2023/08/29 10:49:21;;;;;;;2.87;2.87;;;;;;;17.62;69.98;100851.81;5035411;28;20216;-68
2023/08/29 10:52:06;;;;;;;2.23;2.17;;;;;;;17.49;70.46;100845.41;5035257;28;20188;-68
2023/08/29 10:54:33;;;;;;;3.93;3.90;;;;;;;17.50;73.42;100853.34;5035305;28;20237;-68
2023/08/29 10:57:00;;;;;;;2.23;2.23;;;;;;;17.55;72.48;100850.06;5035166;28;20188;-68
2023/08/29 10:59:34;;;;;;;1.50;1.50;;;;;;;17.57;71.46;100850.69;5035150;28;20212;-68
2023/08/29 11:02:29;;;;;;;1.83;1.83;;;;;;;17.54;71.16;100843.81;5035137;28;20168;-68
2023/08/29 11:05:04;;;;;;;1.87;1.87;;;;;;;17.58;71.00;100842.44;5035257;28;20234;-68
2023/08/29 11:07:33;;;;;;;2.20;1.90;;;;;;;17.72;70.60;100844.22;5035520;28;20191;-68
2023/08/29 11:10:22;;;;;;;4.33;3.70;;;;;;;17.77;70.13;100839.06;5035252;28;20595;-68
2023/08/29 11:13:02;;;;;;;2.30;1.97;;;;;;;17.77;67.01;100827.41;5035026;28;20204;-68
2023/08/29 11:15:47;;;;;;;2.07;1.97;;;;;;;17.88;68.00;100835.00;5034933;28;20236;-68
2023/08/29 11:18:32;;;;;;;5.40;2.10;;;;;;;17.78;65.67;100829.06;5034958;28;20207;-69
2023/08/29 11:21:06;;;;;;;2.53;2.43;;;;;;;17.91;68.21;100823.75;5035385;28;20172;-68
2023/08/29 11:23:36;;;;;;;1.90;1.90;;;;;;;17.86;66.63;100814.59;5035443;28;20706;-68